createdAt,value
2023-04-22T00:00:14.522Z,0
2023-04-22T00:05:20.037Z,0
2023-04-22T00:10:22.227Z,0.88715
2023-04-22T00:15:23.586Z,0
2023-04-22T00:20:25.050Z,0
2023-04-22T00:25:26.350Z,0
2023-04-22T00:30:27.695Z,0
2023-04-22T00:35:29.849Z,0
2023-04-22T00:40:31.370Z,0
2023-04-22T00:45:32.940Z,0
2023-04-22T00:50:34.503Z,0
2023-04-22T00:55:36.092Z,0
2023-04-22T01:00:37.781Z,0
2023-04-22T01:05:39.228Z,0
2023-04-22T01:10:40.765Z,0.88715
2023-04-22T01:15:42.329Z,0
2023-04-22T01:20:43.876Z,0.88715
2023-04-22T01:25:45.284Z,0
2023-04-22T01:30:46.672Z,0
2023-04-22T01:35:48.136Z,0
2023-04-22T01:40:49.822Z,0
2023-04-22T01:45:51.402Z,0
2023-04-22T01:50:52.921Z,0
2023-04-22T01:55:54.186Z,0
2023-04-22T02:00:55.543Z,0
2023-04-22T02:05:57.001Z,0
2023-04-22T02:10:58.579Z,0
2023-04-22T02:16:00.060Z,0
2023-04-22T02:21:01.521Z,0
2023-04-22T02:26:03.094Z,0.88715
2023-04-22T02:31:04.691Z,0
2023-04-22T02:36:06.437Z,0
2023-04-22T02:41:07.745Z,0
2023-04-22T02:46:09.347Z,0
2023-04-22T02:51:10.766Z,0
2023-04-22T02:56:12.062Z,0
2023-04-22T03:01:13.573Z,0
2023-04-22T03:06:14.989Z,0
2023-04-22T03:11:16.239Z,0
2023-04-22T03:16:17.677Z,0
2023-04-22T03:21:19.183Z,0
2023-04-22T03:26:20.588Z,0
2023-04-22T03:31:21.857Z,0
2023-04-22T03:36:23.403Z,0
2023-04-22T03:41:24.916Z,0
2023-04-22T03:46:26.618Z,0
2023-04-22T03:51:28.069Z,0
2023-04-22T03:56:29.330Z,0.88715
2023-04-22T04:01:30.717Z,0.88715
2023-04-22T04:06:32.328Z,0
2023-04-22T04:11:33.890Z,2.3237
2023-04-22T04:16:35.524Z,6.9711
2023-04-22T04:21:37.002Z,4.59225
2023-04-22T04:26:38.530Z,12.30115
2023-04-22T04:31:40.145Z,16.6538
2023-04-22T04:36:41.714Z,24.2524
2023-04-22T04:41:43.290Z,33.7767
2023-04-22T04:46:44.629Z,56.6739
2023-04-22T04:51:46.194Z,73.99135
2023-04-22T04:56:47.736Z,98.68495
2023-04-22T05:01:49.413Z,112.9599
2023-04-22T05:06:50.728Z,140.2168
2023-04-22T05:11:52.307Z,150.2304
2023-04-22T05:16:53.905Z,153.9574
2023-04-22T05:21:55.766Z,161.2631
2023-04-22T05:26:57.230Z,147.43305
2023-04-22T05:31:58.547Z,124.89585
2023-04-22T05:37:00.019Z,125.63365
2023-04-22T05:42:01.537Z,145.773
2023-04-22T05:47:03.105Z,156.83815
2023-04-22T05:52:04.697Z,190.32835
2023-04-22T05:57:06.006Z,222.5084
2023-04-22T06:02:07.769Z,258.7292
2023-04-22T06:07:09.542Z,281.2474
2023-04-22T06:12:11.125Z,324.25485
2023-04-22T06:17:12.493Z,393.93525
2023-04-22T06:22:13.851Z,491.18075
2023-04-22T06:27:15.145Z,551.94685
2023-04-22T06:32:16.590Z,355.6401
2023-04-22T06:37:17.985Z,419.8023
2023-04-22T06:42:19.477Z,440.6776
2023-04-22T06:47:21.101Z,646.4066
2023-04-22T06:52:23.976Z,645.0603
2023-04-22T06:57:25.810Z,659.18695
2023-04-22T07:02:27.444Z,683.91855
2023-04-22T07:07:29.089Z,696.90235
2023-04-22T07:12:30.729Z,712.81835
2023-04-22T07:17:32.451Z,735.59515
2023-04-22T07:22:34.239Z,745.8312
2023-04-22T07:27:37.050Z,756.19655
2023-04-22T07:32:38.985Z,776.53935
2023-04-22T07:37:40.701Z,790.8333
2023-04-22T07:42:42.246Z,745.68475
2023-04-22T07:47:43.854Z,817.33525
2023-04-22T07:52:45.475Z,828.97275
2023-04-22T07:57:47.059Z,844.53885
2023-04-22T08:02:48.807Z,851.17905
2023-04-22T08:07:50.465Z,868.82925
2023-04-22T08:12:52.023Z,887.82575
2023-04-22T08:17:53.616Z,904.25895
2023-04-22T08:22:55.189Z,921.66955
2023-04-22T08:27:56.767Z,940.8505
2023-04-22T08:32:58.363Z,956.9148
2023-04-22T08:37:59.982Z,968.7006
2023-04-22T08:43:02.319Z,984.34085
2023-04-22T08:48:04.544Z,980.3951
2023-04-22T08:53:06.055Z,998.61765
2023-04-22T08:58:07.558Z,1013.70455
2023-04-22T09:03:09.139Z,1021.45145
2023-04-22T09:08:10.826Z,1045.46425
2023-04-22T09:13:12.311Z,1061.89745
2023-04-22T09:18:13.663Z,1086.0947
2023-04-22T09:23:15.013Z,1118.25945
2023-04-22T09:28:16.326Z,1179.63775
2023-04-22T09:33:17.778Z,1083.22135
2023-04-22T09:38:19.103Z,957.87875
2023-04-22T09:43:20.626Z,1161.78595
2023-04-22T09:48:21.919Z,1199.88925
2023-04-22T09:53:23.209Z,1197.82415
2023-04-22T09:58:24.692Z,1244.20685
2023-04-22T10:03:26.008Z,1254.34975
2023-04-22T10:08:27.347Z,1298.152
2023-04-22T10:13:28.881Z,1323.54725
2023-04-22T10:18:30.440Z,1350.84215
2023-04-22T10:23:32.041Z,1399.93645
2023-04-22T10:28:33.588Z,1443.99545
2023-04-22T10:33:35.164Z,1532.9064
2023-04-22T10:38:36.788Z,1588.386
2023-04-22T10:43:38.331Z,737.9661
2023-04-22T10:48:39.903Z,1644.30125
2023-04-22T10:53:41.299Z,1638.416
2023-04-22T10:58:42.876Z,1431.375
2023-04-22T11:03:44.506Z,1527.47765
2023-04-22T11:08:46.253Z,1707.7011
2023-04-22T11:13:47.834Z,1765.40755
2023-04-22T11:18:49.086Z,1751.2619
2023-04-22T11:23:50.702Z,1827.64925
2023-04-22T11:28:52.316Z,1848.32295
2023-04-22T11:33:53.704Z,1846.56975
2023-04-22T11:38:55.270Z,1944.3723
2023-04-22T11:43:56.912Z,1949.0767
2023-04-22T11:48:58.460Z,1979.43125
2023-04-22T11:54:00.046Z,1980.66725
2023-04-22T11:59:01.670Z,609.353
2023-04-22T12:04:03.458Z,1981.47365
2023-04-22T12:09:05.177Z,2107.21575
2023-04-22T12:14:06.750Z,667.48165
2023-04-22T12:19:08.345Z,1572.1586
2023-04-22T12:24:09.920Z,650.72495
2023-04-22T12:29:11.484Z,1394.03825
2023-04-22T12:34:13.057Z,821.7982
2023-04-22T12:39:14.501Z,2124.42105
2023-04-22T12:44:15.887Z,732.23705
2023-04-22T12:49:17.195Z,1934.73735
2023-04-22T12:54:18.571Z,988.6064
2023-04-22T12:59:19.830Z,973.6641
2023-04-22T13:04:21.357Z,2040.2947
2023-04-22T13:09:22.849Z,1968.9751
2023-04-22T13:14:24.258Z,2007.27815
2023-04-22T13:19:25.579Z,1560.6546
2023-04-22T13:24:27.098Z,1989.2039
2023-04-22T13:29:28.603Z,1946.56535
2023-04-22T13:34:29.871Z,1908.50005
2023-04-22T13:39:32.026Z,1887.3986
2023-04-22T13:44:33.681Z,1759.0932
2023-04-22T13:49:35.141Z,1207.34795
2023-04-22T13:54:36.854Z,1797.9876
2023-04-22T13:59:38.499Z,1732.2395
2023-04-22T14:04:40.377Z,1681.2094
2023-04-22T14:09:42.286Z,1636.96595
2023-04-22T14:14:44.086Z,1607.56795
2023-04-22T14:19:45.680Z,1510.65335
2023-04-22T14:24:47.130Z,1437.23435
2023-04-22T14:29:48.530Z,1324.9761
2023-04-22T14:34:50.082Z,1229.74055
2023-04-22T14:39:51.527Z,1119.3268
2023-04-22T14:44:53.098Z,965.24195
2023-04-22T14:49:54.704Z,794.57745
2023-04-22T14:54:56.274Z,632.1752
2023-04-22T14:59:57.917Z,479.8607
2023-04-22T15:04:59.491Z,363.9876
2023-04-22T15:10:01.198Z,255.5268
2023-04-22T15:15:02.790Z,181.27685
2023-04-22T15:20:05.271Z,127.47815
2023-04-22T15:25:07.868Z,97.65425
2023-04-22T15:30:09.421Z,80.4091
2023-04-22T15:35:11.822Z,61.59705
2023-04-22T15:40:13.504Z,44.04
2023-04-22T15:45:14.811Z,21.7804
2023-04-22T15:50:16.116Z,7.4693
2023-04-22T15:55:17.904Z,2.13325
2023-04-22T16:00:19.185Z,2.3237
2023-04-22T16:05:20.490Z,1.16185
2023-04-22T16:10:22.351Z,0.88715
2023-04-22T16:15:23.644Z,0.88715
2023-04-22T16:20:25.220Z,0
2023-04-22T16:25:26.824Z,0.88715
2023-04-22T16:30:28.544Z,0.88715
2023-04-22T16:35:30.156Z,0
2023-04-22T16:40:31.985Z,0
2023-04-22T16:45:33.527Z,0
2023-04-22T16:50:34.968Z,0
2023-04-22T16:55:37.088Z,0
2023-04-22T17:00:38.788Z,0
2023-04-22T17:05:40.366Z,0
2023-04-22T17:10:41.938Z,0.88715
2023-04-22T17:15:43.524Z,0
2023-04-22T17:20:44.923Z,0
2023-04-22T17:25:46.384Z,0.88715
2023-04-22T17:30:47.644Z,0
2023-04-22T17:35:49.360Z,0
2023-04-22T17:40:50.850Z,0
2023-04-22T17:45:52.107Z,0
2023-04-22T17:50:53.690Z,0
2023-04-22T17:55:55.246Z,0
2023-04-22T18:00:56.849Z,0
2023-04-22T18:05:58.401Z,0
2023-04-22T18:10:59.983Z,0
2023-04-22T18:16:01.591Z,0
2023-04-22T18:21:03.108Z,0
2023-04-22T18:26:04.659Z,0.88715
2023-04-22T18:31:06.449Z,0
2023-04-22T18:36:08.046Z,0
2023-04-22T18:41:09.539Z,0
2023-04-22T18:46:11.120Z,0
2023-04-22T18:51:12.577Z,0
2023-04-22T18:56:14.272Z,0.88715
2023-04-22T19:01:15.693Z,0
2023-04-22T19:06:16.981Z,0
2023-04-22T19:11:18.383Z,0
2023-04-22T19:16:19.808Z,0
2023-04-22T19:21:21.410Z,0
2023-04-22T19:26:23.100Z,0
2023-04-22T19:31:24.618Z,0
2023-04-22T19:36:25.997Z,0
2023-04-22T19:41:27.596Z,0
2023-04-22T19:46:29.299Z,0
2023-04-22T19:51:30.837Z,0
2023-04-22T19:56:32.529Z,0
2023-04-22T20:01:33.837Z,0
2023-04-22T20:06:35.341Z,0
2023-04-22T20:11:36.722Z,0
2023-04-22T20:16:38.094Z,0
2023-04-22T20:21:39.587Z,0
2023-04-22T20:26:40.872Z,0
2023-04-22T20:31:42.322Z,0.88715
2023-04-22T20:36:43.849Z,0.88715
2023-04-22T20:41:47.797Z,0
2023-04-22T20:46:49.345Z,0.88715
2023-04-22T20:51:51.495Z,0
2023-04-22T20:56:52.767Z,0
2023-04-22T21:01:54.341Z,0.88715
2023-04-22T21:06:55.651Z,0
2023-04-22T21:11:57.224Z,0
2023-04-22T21:16:58.855Z,0
2023-04-22T21:22:00.172Z,0.88715
2023-04-22T21:27:01.484Z,0
2023-04-22T21:32:09.295Z,0
2023-04-22T21:37:11.360Z,0
2023-04-22T21:42:12.622Z,0
2023-04-22T21:47:14.206Z,0
2023-04-22T21:52:15.666Z,0
2023-04-22T21:57:17.176Z,0
2023-04-22T22:02:18.746Z,0
2023-04-22T22:07:20.118Z,0
2023-04-22T22:12:21.734Z,0
2023-04-22T22:17:23.401Z,0.88715
2023-04-22T22:22:24.982Z,0.88715
2023-04-22T22:27:26.473Z,0
2023-04-22T22:32:28.048Z,0
2023-04-22T22:37:29.295Z,0
2023-04-22T22:42:30.677Z,0
2023-04-22T22:47:32.000Z,0
2023-04-22T22:52:33.613Z,0
2023-04-22T22:57:35.579Z,0
2023-04-22T23:02:37.541Z,0
2023-04-22T23:07:39.331Z,0
2023-04-22T23:12:40.949Z,0
2023-04-22T23:17:42.535Z,0.88715
2023-04-22T23:22:44.129Z,0.88715
2023-04-22T23:27:45.722Z,0
2023-04-22T23:32:47.318Z,0
2023-04-22T23:37:48.831Z,0
2023-04-22T23:42:50.208Z,0
2023-04-22T23:47:51.482Z,0
2023-04-22T23:52:52.978Z,0
2023-04-22T23:57:54.462Z,0
